sensor_id;sensor_type;location;lat;lon;timestamp;P1;durP1;ratioP1;P2;durP2;ratioP2
13866;SDS011;7003;46.982;15.248;2023-04-24T00:02:01;9.50;;;3.97;;
13866;SDS011;7003;46.982;15.248;2023-04-24T00:04:28;16.63;;;4.15;;
13866;SDS011;7003;46.982;15.248;2023-04-24T00:06:57;4.60;;;3.78;;
13866;SDS011;7003;46.982;15.248;2023-04-24T00:09:25;6.10;;;4.35;;
13866;SDS011;7003;46.982;15.248;2023-04-24T00:11:52;5.60;;;3.85;;
13866;SDS011;7003;46.982;15.248;2023-04-24T00:14:22;7.47;;;5.82;;
13866;SDS011;7003;46.982;15.248;2023-04-24T00:16:49;4.43;;;3.65;;
13866;SDS011;7003;46.982;15.248;2023-04-24T00:19:18;4.88;;;4.32;;
13866;SDS011;7003;46.982;15.248;2023-04-24T00:21:46;4.47;;;3.65;;
13866;SDS011;7003;46.982;15.248;2023-04-24T00:24:15;4.03;;;3.70;;
13866;SDS011;7003;46.982;15.248;2023-04-24T00:26:42;4.18;;;3.63;;
13866;SDS011;7003;46.982;15.248;2023-04-24T00:29:10;6.90;;;4.30;;
13866;SDS011;7003;46.982;15.248;2023-04-24T00:31:37;5.55;;;4.30;;
13866;SDS011;7003;46.982;15.248;2023-04-24T00:34:04;5.25;;;4.22;;
13866;SDS011;7003;46.982;15.248;2023-04-24T00:36:36;6.28;;;4.35;;
13866;SDS011;7003;46.982;15.248;2023-04-24T00:39:03;6.65;;;5.03;;
13866;SDS011;7003;46.982;15.248;2023-04-24T00:41:30;4.70;;;3.90;;
13866;SDS011;7003;46.982;15.248;2023-04-24T00:43:57;4.63;;;3.88;;
13866;SDS011;7003;46.982;15.248;2023-04-24T00:46:25;6.30;;;4.10;;
13866;SDS011;7003;46.982;15.248;2023-04-24T00:48:52;4.40;;;3.72;;
13866;SDS011;7003;46.982;15.248;2023-04-24T00:51:19;4.75;;;4.25;;
13866;SDS011;7003;46.982;15.248;2023-04-24T00:53:48;7.10;;;4.72;;
13866;SDS011;7003;46.982;15.248;2023-04-24T00:56:15;4.13;;;3.38;;
13866;SDS011;7003;46.982;15.248;2023-04-24T00:58:44;3.72;;;3.40;;
13866;SDS011;7003;46.982;15.248;2023-04-24T01:01:11;4.32;;;3.47;;
13866;SDS011;7003;46.982;15.248;2023-04-24T01:03:39;4.03;;;3.55;;
13866;SDS011;7003;46.982;15.248;2023-04-24T01:06:10;3.42;;;2.70;;
13866;SDS011;7003;46.982;15.248;2023-04-24T01:08:37;8.27;;;3.08;;
13866;SDS011;7003;46.982;15.248;2023-04-24T01:11:07;5.68;;;4.05;;
13866;SDS011;7003;46.982;15.248;2023-04-24T01:13:34;4.63;;;4.18;;
13866;SDS011;7003;46.982;15.248;2023-04-24T01:16:05;4.32;;;3.75;;
13866;SDS011;7003;46.982;15.248;2023-04-24T01:18:32;3.92;;;3.55;;
13866;SDS011;7003;46.982;15.248;2023-04-24T01:21:02;6.22;;;4.07;;
13866;SDS011;7003;46.982;15.248;2023-04-24T01:23:32;4.07;;;3.33;;
13866;SDS011;7003;46.982;15.248;2023-04-24T01:25:59;4.25;;;3.83;;
13866;SDS011;7003;46.982;15.248;2023-04-24T01:28:27;5.40;;;4.13;;
13866;SDS011;7003;46.982;15.248;2023-04-24T01:30:56;15.77;;;4.65;;
13866;SDS011;7003;46.982;15.248;2023-04-24T01:33:24;5.22;;;4.32;;
13866;SDS011;7003;46.982;15.248;2023-04-24T01:35:54;5.65;;;4.53;;
13866;SDS011;7003;46.982;15.248;2023-04-24T01:38:24;5.38;;;4.15;;
13866;SDS011;7003;46.982;15.248;2023-04-24T01:40:55;4.15;;;3.20;;
13866;SDS011;7003;46.982;15.248;2023-04-24T01:43:24;3.85;;;3.55;;
13866;SDS011;7003;46.982;15.248;2023-04-24T01:45:52;5.07;;;4.00;;
13866;SDS011;7003;46.982;15.248;2023-04-24T01:48:19;4.30;;;3.90;;
13866;SDS011;7003;46.982;15.248;2023-04-24T01:50:46;5.00;;;3.63;;
13866;SDS011;7003;46.982;15.248;2023-04-24T01:53:13;4.28;;;3.88;;
13866;SDS011;7003;46.982;15.248;2023-04-24T01:55:43;4.68;;;4.03;;
13866;SDS011;7003;46.982;15.248;2023-04-24T01:58:13;5.80;;;3.97;;
13866;SDS011;7003;46.982;15.248;2023-04-24T02:00:40;4.15;;;3.75;;
13866;SDS011;7003;46.982;15.248;2023-04-24T02:03:07;4.70;;;3.75;;
13866;SDS011;7003;46.982;15.248;2023-04-24T02:05:35;7.80;;;5.00;;
13866;SDS011;7003;46.982;15.248;2023-04-24T02:08:02;5.40;;;4.15;;
13866;SDS011;7003;46.982;15.248;2023-04-24T02:10:31;5.43;;;4.75;;
13866;SDS011;7003;46.982;15.248;2023-04-24T02:12:58;6.93;;;4.40;;
13866;SDS011;7003;46.982;15.248;2023-04-24T02:15:28;5.18;;;4.07;;
13866;SDS011;7003;46.982;15.248;2023-04-24T02:17:56;4.95;;;4.43;;
13866;SDS011;7003;46.982;15.248;2023-04-24T02:20:24;4.13;;;3.65;;
13866;SDS011;7003;46.982;15.248;2023-04-24T02:22:51;3.78;;;3.38;;
13866;SDS011;7003;46.982;15.248;2023-04-24T02:25:19;3.75;;;3.42;;
13866;SDS011;7003;46.982;15.248;2023-04-24T02:27:46;5.60;;;4.38;;
13866;SDS011;7003;46.982;15.248;2023-04-24T02:30:13;3.95;;;3.65;;
13866;SDS011;7003;46.982;15.248;2023-04-24T02:32:42;5.80;;;4.15;;
13866;SDS011;7003;46.982;15.248;2023-04-24T02:35:09;4.38;;;3.67;;
13866;SDS011;7003;46.982;15.248;2023-04-24T02:37:36;5.90;;;4.35;;
13866;SDS011;7003;46.982;15.248;2023-04-24T02:40:06;3.88;;;3.58;;
13866;SDS011;7003;46.982;15.248;2023-04-24T02:42:35;4.50;;;4.00;;
13866;SDS011;7003;46.982;15.248;2023-04-24T02:45:05;6.82;;;4.65;;
13866;SDS011;7003;46.982;15.248;2023-04-24T02:47:33;5.78;;;4.78;;
13866;SDS011;7003;46.982;15.248;2023-04-24T02:50:02;4.25;;;3.72;;
13866;SDS011;7003;46.982;15.248;2023-04-24T02:52:31;14.55;;;3.78;;
13866;SDS011;7003;46.982;15.248;2023-04-24T02:54:59;4.40;;;3.60;;
13866;SDS011;7003;46.982;15.248;2023-04-24T02:57:26;6.18;;;4.05;;
13866;SDS011;7003;46.982;15.248;2023-04-24T02:59:54;8.73;;;4.78;;
13866;SDS011;7003;46.982;15.248;2023-04-24T03:02:23;4.47;;;3.97;;
13866;SDS011;7003;46.982;15.248;2023-04-24T03:04:51;4.40;;;3.53;;
13866;SDS011;7003;46.982;15.248;2023-04-24T03:07:19;3.58;;;3.28;;
13866;SDS011;7003;46.982;15.248;2023-04-24T03:09:47;4.03;;;3.63;;
13866;SDS011;7003;46.982;15.248;2023-04-24T03:12:15;4.40;;;3.92;;
13866;SDS011;7003;46.982;15.248;2023-04-24T03:14:43;4.15;;;3.75;;
13866;SDS011;7003;46.982;15.248;2023-04-24T03:17:11;4.85;;;3.47;;
13866;SDS011;7003;46.982;15.248;2023-04-24T03:19:39;4.70;;;3.92;;
13866;SDS011;7003;46.982;15.248;2023-04-24T03:22:12;6.68;;;4.13;;
13866;SDS011;7003;46.982;15.248;2023-04-24T03:24:48;5.07;;;4.03;;
13866;SDS011;7003;46.982;15.248;2023-04-24T03:27:16;4.53;;;3.83;;
13866;SDS011;7003;46.982;15.248;2023-04-24T03:29:43;4.82;;;3.78;;
13866;SDS011;7003;46.982;15.248;2023-04-24T03:32:10;5.55;;;3.70;;
13866;SDS011;7003;46.982;15.248;2023-04-24T03:34:38;6.97;;;5.00;;
13866;SDS011;7003;46.982;15.248;2023-04-24T03:37:05;7.28;;;3.58;;
13866;SDS011;7003;46.982;15.248;2023-04-24T03:39:33;5.07;;;3.60;;
13866;SDS011;7003;46.982;15.248;2023-04-24T03:42:04;3.42;;;3.05;;
13866;SDS011;7003;46.982;15.248;2023-04-24T03:44:32;3.85;;;3.55;;
13866;SDS011;7003;46.982;15.248;2023-04-24T03:46:59;3.60;;;3.15;;
13866;SDS011;7003;46.982;15.248;2023-04-24T03:49:29;3.92;;;3.63;;
13866;SDS011;7003;46.982;15.248;2023-04-24T03:51:57;4.22;;;3.83;;
13866;SDS011;7003;46.982;15.248;2023-04-24T03:54:24;4.15;;;3.83;;
13866;SDS011;7003;46.982;15.248;2023-04-24T03:56:52;5.28;;;4.78;;
13866;SDS011;7003;46.982;15.248;2023-04-24T03:59:21;5.05;;;3.58;;
13866;SDS011;7003;46.982;15.248;2023-04-24T04:01:52;3.45;;;3.15;;
13866;SDS011;7003;46.982;15.248;2023-04-24T04:04:22;4.72;;;3.65;;
13866;SDS011;7003;46.982;15.248;2023-04-24T04:06:51;4.97;;;3.83;;
13866;SDS011;7003;46.982;15.248;2023-04-24T04:09:19;6.50;;;5.13;;
13866;SDS011;7003;46.982;15.248;2023-04-24T04:11:47;4.68;;;4.03;;
13866;SDS011;7003;46.982;15.248;2023-04-24T04:14:15;3.92;;;3.63;;
13866;SDS011;7003;46.982;15.248;2023-04-24T04:16:44;3.63;;;3.33;;
13866;SDS011;7003;46.982;15.248;2023-04-24T04:19:12;3.40;;;2.90;;
13866;SDS011;7003;46.982;15.248;2023-04-24T04:21:43;3.97;;;3.15;;
13866;SDS011;7003;46.982;15.248;2023-04-24T04:24:13;3.20;;;2.90;;
13866;SDS011;7003;46.982;15.248;2023-04-24T04:26:43;4.18;;;3.70;;
13866;SDS011;7003;46.982;15.248;2023-04-24T04:29:15;3.05;;;2.72;;
13866;SDS011;7003;46.982;15.248;2023-04-24T04:31:44;4.03;;;3.43;;
13866;SDS011;7003;46.982;15.248;2023-04-24T04:34:12;3.90;;;3.30;;
13866;SDS011;7003;46.982;15.248;2023-04-24T04:36:43;4.00;;;3.15;;
13866;SDS011;7003;46.982;15.248;2023-04-24T04:39:14;4.93;;;3.58;;
13866;SDS011;7003;46.982;15.248;2023-04-24T04:41:44;4.28;;;3.55;;
13866;SDS011;7003;46.982;15.248;2023-04-24T04:44:14;3.58;;;3.05;;
13866;SDS011;7003;46.982;15.248;2023-04-24T04:46:42;5.53;;;4.25;;
13866;SDS011;7003;46.982;15.248;2023-04-24T04:49:15;6.72;;;4.72;;
13866;SDS011;7003;46.982;15.248;2023-04-24T04:51:44;5.22;;;4.18;;
13866;SDS011;7003;46.982;15.248;2023-04-24T04:54:15;5.47;;;4.75;;
13866;SDS011;7003;46.982;15.248;2023-04-24T04:56:46;4.65;;;4.22;;
13866;SDS011;7003;46.982;15.248;2023-04-24T04:59:16;6.80;;;5.00;;
13866;SDS011;7003;46.982;15.248;2023-04-24T05:01:45;5.22;;;4.22;;
13866;SDS011;7003;46.982;15.248;2023-04-24T05:04:17;8.27;;;4.57;;
13866;SDS011;7003;46.982;15.248;2023-04-24T05:06:48;5.80;;;4.60;;
13866;SDS011;7003;46.982;15.248;2023-04-24T05:09:17;5.32;;;4.60;;
13866;SDS011;7003;46.982;15.248;2023-04-24T05:11:45;4.13;;;3.10;;
13866;SDS011;7003;46.982;15.248;2023-04-24T05:14:13;9.18;;;5.53;;
13866;SDS011;7003;46.982;15.248;2023-04-24T05:16:41;5.85;;;4.85;;
13866;SDS011;7003;46.982;15.248;2023-04-24T05:19:09;6.68;;;5.53;;
13866;SDS011;7003;46.982;15.248;2023-04-24T05:21:43;5.07;;;4.57;;
13866;SDS011;7003;46.982;15.248;2023-04-24T05:24:14;4.93;;;3.88;;
13866;SDS011;7003;46.982;15.248;2023-04-24T05:26:45;4.30;;;3.88;;
13866;SDS011;7003;46.982;15.248;2023-04-24T05:29:16;4.93;;;4.45;;
13866;SDS011;7003;46.982;15.248;2023-04-24T05:31:46;5.80;;;5.10;;
13866;SDS011;7003;46.982;15.248;2023-04-24T05:34:22;3.83;;;3.50;;
13866;SDS011;7003;46.982;15.248;2023-04-24T05:36:54;4.75;;;4.18;;
13866;SDS011;7003;46.982;15.248;2023-04-24T05:39:22;7.53;;;5.18;;
13866;SDS011;7003;46.982;15.248;2023-04-24T05:41:50;5.95;;;4.93;;
13866;SDS011;7003;46.982;15.248;2023-04-24T05:44:18;6.47;;;4.45;;
13866;SDS011;7003;46.982;15.248;2023-04-24T05:46:49;3.97;;;3.65;;
13866;SDS011;7003;46.982;15.248;2023-04-24T05:49:20;6.05;;;4.65;;
13866;SDS011;7003;46.982;15.248;2023-04-24T05:51:49;7.05;;;5.43;;
13866;SDS011;7003;46.982;15.248;2023-04-24T05:54:22;5.03;;;4.45;;
13866;SDS011;7003;46.982;15.248;2023-04-24T05:56:51;5.38;;;4.85;;
13866;SDS011;7003;46.982;15.248;2023-04-24T05:59:20;6.28;;;4.20;;
13866;SDS011;7003;46.982;15.248;2023-04-24T06:01:52;6.50;;;5.05;;
13866;SDS011;7003;46.982;15.248;2023-04-24T06:04:20;6.30;;;5.70;;
13866;SDS011;7003;46.982;15.248;2023-04-24T06:06:48;5.03;;;4.53;;
13866;SDS011;7003;46.982;15.248;2023-04-24T06:09:22;8.57;;;5.93;;
13866;SDS011;7003;46.982;15.248;2023-04-24T06:11:52;6.18;;;5.10;;
13866;SDS011;7003;46.982;15.248;2023-04-24T06:14:20;12.13;;;6.32;;
13866;SDS011;7003;46.982;15.248;2023-04-24T06:16:48;8.38;;;4.70;;
13866;SDS011;7003;46.982;15.248;2023-04-24T06:19:16;5.82;;;5.15;;
13866;SDS011;7003;46.982;15.248;2023-04-24T06:21:44;4.35;;;3.95;;
13866;SDS011;7003;46.982;15.248;2023-04-24T06:24:13;4.90;;;4.07;;
13866;SDS011;7003;46.982;15.248;2023-04-24T06:26:44;5.95;;;5.13;;
13866;SDS011;7003;46.982;15.248;2023-04-24T06:29:14;4.63;;;3.67;;
13866;SDS011;7003;46.982;15.248;2023-04-24T06:31:42;3.40;;;3.10;;
13866;SDS011;7003;46.982;15.248;2023-04-24T06:34:10;5.30;;;3.85;;
13866;SDS011;7003;46.982;15.248;2023-04-24T06:36:38;3.90;;;3.10;;
13866;SDS011;7003;46.982;15.248;2023-04-24T06:39:06;4.88;;;3.75;;
13866;SDS011;7003;46.982;15.248;2023-04-24T06:41:34;4.03;;;3.63;;
13866;SDS011;7003;46.982;15.248;2023-04-24T06:44:03;4.88;;;4.38;;
13866;SDS011;7003;46.982;15.248;2023-04-24T06:46:31;4.93;;;4.05;;
13866;SDS011;7003;46.982;15.248;2023-04-24T06:48:59;4.32;;;3.92;;
13866;SDS011;7003;46.982;15.248;2023-04-24T06:51:27;5.40;;;3.95;;
13866;SDS011;7003;46.982;15.248;2023-04-24T06:53:57;6.07;;;5.00;;
13866;SDS011;7003;46.982;15.248;2023-04-24T06:56:25;4.93;;;4.43;;
13866;SDS011;7003;46.982;15.248;2023-04-24T06:58:54;6.05;;;3.83;;
13866;SDS011;7003;46.982;15.248;2023-04-24T07:01:25;7.43;;;3.67;;
13866;SDS011;7003;46.982;15.248;2023-04-24T07:03:53;6.90;;;4.93;;
13866;SDS011;7003;46.982;15.248;2023-04-24T07:06:23;6.85;;;5.13;;
13866;SDS011;7003;46.982;15.248;2023-04-24T07:08:51;4.43;;;4.03;;
13866;SDS011;7003;46.982;15.248;2023-04-24T07:11:21;5.45;;;4.07;;
13866;SDS011;7003;46.982;15.248;2023-04-24T07:13:49;4.88;;;4.00;;
13866;SDS011;7003;46.982;15.248;2023-04-24T07:16:19;4.57;;;4.05;;
13866;SDS011;7003;46.982;15.248;2023-04-24T07:18:49;5.80;;;4.60;;
13866;SDS011;7003;46.982;15.248;2023-04-24T07:21:20;5.75;;;3.92;;
13866;SDS011;7003;46.982;15.248;2023-04-24T07:23:55;6.20;;;4.22;;
13866;SDS011;7003;46.982;15.248;2023-04-24T07:26:23;6.25;;;4.35;;
13866;SDS011;7003;46.982;15.248;2023-04-24T07:28:53;5.57;;;5.07;;
13866;SDS011;7003;46.982;15.248;2023-04-24T07:31:21;4.60;;;4.18;;
13866;SDS011;7003;46.982;15.248;2023-04-24T07:33:51;4.22;;;3.92;;
13866;SDS011;7003;46.982;15.248;2023-04-24T07:36:21;4.15;;;3.75;;
13866;SDS011;7003;46.982;15.248;2023-04-24T07:38:50;5.68;;;5.18;;
13866;SDS011;7003;46.982;15.248;2023-04-24T07:41:21;5.00;;;3.88;;
13866;SDS011;7003;46.982;15.248;2023-04-24T07:43:52;5.00;;;4.50;;
13866;SDS011;7003;46.982;15.248;2023-04-24T07:46:22;5.05;;;4.35;;
13866;SDS011;7003;46.982;15.248;2023-04-24T07:48:51;5.47;;;4.63;;
13866;SDS011;7003;46.982;15.248;2023-04-24T07:51:22;7.35;;;4.97;;
13866;SDS011;7003;46.982;15.248;2023-04-24T07:53:52;6.65;;;5.03;;
13866;SDS011;7003;46.982;15.248;2023-04-24T07:56:20;7.85;;;5.53;;
13866;SDS011;7003;46.982;15.248;2023-04-24T07:58:48;4.70;;;4.13;;
13866;SDS011;7003;46.982;15.248;2023-04-24T08:01:15;6.47;;;5.10;;
13866;SDS011;7003;46.982;15.248;2023-04-24T08:03:43;4.80;;;4.30;;
13866;SDS011;7003;46.982;15.248;2023-04-24T08:06:14;5.05;;;4.50;;
13866;SDS011;7003;46.982;15.248;2023-04-24T08:08:44;5.25;;;4.55;;
13866;SDS011;7003;46.982;15.248;2023-04-24T08:11:12;4.97;;;4.50;;
13866;SDS011;7003;46.982;15.248;2023-04-24T08:13:40;6.55;;;5.03;;
13866;SDS011;7003;46.982;15.248;2023-04-24T08:16:07;6.50;;;4.43;;
13866;SDS011;7003;46.982;15.248;2023-04-24T08:18:36;5.72;;;4.95;;
13866;SDS011;7003;46.982;15.248;2023-04-24T08:21:04;7.47;;;5.55;;
13866;SDS011;7003;46.982;15.248;2023-04-24T08:23:33;5.40;;;4.90;;
13866;SDS011;7003;46.982;15.248;2023-04-24T08:26:00;5.78;;;5.25;;
13866;SDS011;7003;46.982;15.248;2023-04-24T08:28:31;6.30;;;4.95;;
13866;SDS011;7003;46.982;15.248;2023-04-24T08:30:59;6.85;;;5.95;;
13866;SDS011;7003;46.982;15.248;2023-04-24T08:33:27;5.78;;;5.18;;
13866;SDS011;7003;46.982;15.248;2023-04-24T08:35:59;13.50;;;6.28;;
13866;SDS011;7003;46.982;15.248;2023-04-24T08:38:28;7.03;;;6.40;;
13866;SDS011;7003;46.982;15.248;2023-04-24T08:40:57;8.05;;;5.90;;
13866;SDS011;7003;46.982;15.248;2023-04-24T08:43:26;6.25;;;5.18;;
13866;SDS011;7003;46.982;15.248;2023-04-24T08:45:57;6.97;;;6.05;;
13866;SDS011;7003;46.982;15.248;2023-04-24T08:48:27;14.75;;;5.97;;
13866;SDS011;7003;46.982;15.248;2023-04-24T08:50:55;9.65;;;5.90;;
13866;SDS011;7003;46.982;15.248;2023-04-24T08:53:24;8.77;;;6.68;;
13866;SDS011;7003;46.982;15.248;2023-04-24T08:55:52;7.55;;;6.03;;
13866;SDS011;7003;46.982;15.248;2023-04-24T08:58:26;6.85;;;6.15;;
13866;SDS011;7003;46.982;15.248;2023-04-24T09:00:55;6.70;;;5.93;;
13866;SDS011;7003;46.982;15.248;2023-04-24T09:03:23;7.35;;;5.60;;
13866;SDS011;7003;46.982;15.248;2023-04-24T09:05:53;10.23;;;5.97;;
13866;SDS011;7003;46.982;15.248;2023-04-24T09:08:23;9.30;;;6.30;;
13866;SDS011;7003;46.982;15.248;2023-04-24T09:10:52;8.52;;;7.03;;
13866;SDS011;7003;46.982;15.248;2023-04-24T09:13:23;6.07;;;5.35;;
13866;SDS011;7003;46.982;15.248;2023-04-24T09:15:52;6.05;;;5.45;;
13866;SDS011;7003;46.982;15.248;2023-04-24T09:18:25;6.18;;;5.15;;
13866;SDS011;7003;46.982;15.248;2023-04-24T09:21:00;6.15;;;5.18;;
13866;SDS011;7003;46.982;15.248;2023-04-24T09:23:30;6.78;;;5.43;;
13866;SDS011;7003;46.982;15.248;2023-04-24T09:26:02;6.10;;;4.57;;
13866;SDS011;7003;46.982;15.248;2023-04-24T09:28:32;5.80;;;4.97;;
13866;SDS011;7003;46.982;15.248;2023-04-24T09:31:07;6.40;;;5.25;;
13866;SDS011;7003;46.982;15.248;2023-04-24T09:33:36;7.88;;;5.07;;
13866;SDS011;7003;46.982;15.248;2023-04-24T09:36:04;6.10;;;4.97;;
13866;SDS011;7003;46.982;15.248;2023-04-24T09:38:35;6.03;;;5.30;;
13866;SDS011;7003;46.982;15.248;2023-04-24T09:41:06;9.77;;;5.85;;
13866;SDS011;7003;46.982;15.248;2023-04-24T09:43:35;5.75;;;4.30;;
13866;SDS011;7003;46.982;15.248;2023-04-24T09:46:07;6.63;;;5.47;;
13866;SDS011;7003;46.982;15.248;2023-04-24T09:48:36;4.88;;;4.43;;
13866;SDS011;7003;46.982;15.248;2023-04-24T09:51:07;5.20;;;4.68;;
13866;SDS011;7003;46.982;15.248;2023-04-24T09:53:38;4.72;;;4.10;;
13866;SDS011;7003;46.982;15.248;2023-04-24T09:56:07;5.22;;;4.63;;
13866;SDS011;7003;46.982;15.248;2023-04-24T09:58:36;7.22;;;5.85;;
13866;SDS011;7003;46.982;15.248;2023-04-24T10:01:06;5.38;;;4.57;;
13866;SDS011;7003;46.982;15.248;2023-04-24T10:03:38;7.78;;;4.50;;
13866;SDS011;7003;46.982;15.248;2023-04-24T10:06:11;9.50;;;6.20;;
13866;SDS011;7003;46.982;15.248;2023-04-24T10:08:43;10.65;;;7.20;;
13866;SDS011;7003;46.982;15.248;2023-04-24T10:11:11;8.23;;;5.80;;
13866;SDS011;7003;46.982;15.248;2023-04-24T10:13:42;8.63;;;5.00;;
13866;SDS011;7003;46.982;15.248;2023-04-24T10:16:12;5.97;;;4.85;;
13866;SDS011;7003;46.982;15.248;2023-04-24T10:18:41;4.97;;;4.30;;
13866;SDS011;7003;46.982;15.248;2023-04-24T10:21:12;4.80;;;3.95;;
13866;SDS011;7003;46.982;15.248;2023-04-24T10:23:40;4.68;;;4.15;;
13866;SDS011;7003;46.982;15.248;2023-04-24T10:26:09;4.30;;;3.90;;
13866;SDS011;7003;46.982;15.248;2023-04-24T10:28:45;3.75;;;3.42;;
13866;SDS011;7003;46.982;15.248;2023-04-24T10:31:16;4.13;;;3.47;;
13866;SDS011;7003;46.982;15.248;2023-04-24T10:33:47;4.97;;;3.13;;
13866;SDS011;7003;46.982;15.248;2023-04-24T10:36:18;2.80;;;2.60;;
13866;SDS011;7003;46.982;15.248;2023-04-24T10:38:52;3.15;;;1.92;;
13866;SDS011;7003;46.982;15.248;2023-04-24T10:41:22;2.97;;;2.67;;
13866;SDS011;7003;46.982;15.248;2023-04-24T10:44:06;2.72;;;2.53;;
13866;SDS011;7003;46.982;15.248;2023-04-24T10:46:37;3.60;;;2.85;;
13866;SDS011;7003;46.982;15.248;2023-04-24T10:49:08;3.65;;;2.20;;
13866;SDS011;7003;46.982;15.248;2023-04-24T10:51:47;3.97;;;3.45;;
13866;SDS011;7003;46.982;15.248;2023-04-24T10:54:22;2.92;;;2.55;;
13866;SDS011;7003;46.982;15.248;2023-04-24T10:56:50;2.25;;;2.05;;
13866;SDS011;7003;46.982;15.248;2023-04-24T10:59:24;6.25;;;3.53;;
13866;SDS011;7003;46.982;15.248;2023-04-24T11:01:55;2.17;;;1.98;;
13866;SDS011;7003;46.982;15.248;2023-04-24T11:04:29;3.28;;;2.15;;
13866;SDS011;7003;46.982;15.248;2023-04-24T11:06:58;2.53;;;1.77;;
13866;SDS011;7003;46.982;15.248;2023-04-24T11:09:30;1.85;;;1.75;;
13866;SDS011;7003;46.982;15.248;2023-04-24T11:12:04;1.98;;;1.77;;
13866;SDS011;7003;46.982;15.248;2023-04-24T11:17:32;2.50;;;1.92;;
13866;SDS011;7003;46.982;15.248;2023-04-24T11:20:03;2.22;;;2.03;;
13866;SDS011;7003;46.982;15.248;2023-04-24T11:22:36;2.75;;;2.33;;
13866;SDS011;7003;46.982;15.248;2023-04-24T11:25:05;3.63;;;2.35;;
13866;SDS011;7003;46.982;15.248;2023-04-24T11:27:38;2.35;;;1.75;;
13866;SDS011;7003;46.982;15.248;2023-04-24T11:30:11;2.17;;;2.00;;
13866;SDS011;7003;46.982;15.248;2023-04-24T11:32:43;2.70;;;1.85;;
13866;SDS011;7003;46.982;15.248;2023-04-24T11:35:18;1.80;;;1.58;;
13866;SDS011;7003;46.982;15.248;2023-04-24T11:37:47;2.28;;;2.05;;
13866;SDS011;7003;46.982;15.248;2023-04-24T11:40:17;1.40;;;1.30;;
13866;SDS011;7003;46.982;15.248;2023-04-24T11:42:49;2.45;;;2.10;;
13866;SDS011;7003;46.982;15.248;2023-04-24T11:45:18;2.53;;;2.30;;
13866;SDS011;7003;46.982;15.248;2023-04-24T11:47:53;8.15;;;3.33;;
13866;SDS011;7003;46.982;15.248;2023-04-24T11:50:21;1.73;;;1.63;;
13866;SDS011;7003;46.982;15.248;2023-04-24T11:52:52;3.30;;;2.50;;
13866;SDS011;7003;46.982;15.248;2023-04-24T11:55:24;2.30;;;2.10;;
13866;SDS011;7003;46.982;15.248;2023-04-24T11:57:54;2.60;;;1.60;;
13866;SDS011;7003;46.982;15.248;2023-04-24T12:00:29;2.05;;;1.95;;
13866;SDS011;7003;46.982;15.248;2023-04-24T12:03:07;2.25;;;1.90;;
13866;SDS011;7003;46.982;15.248;2023-04-24T12:05:35;2.80;;;2.10;;
13866;SDS011;7003;46.982;15.248;2023-04-24T12:08:04;1.73;;;1.63;;
13866;SDS011;7003;46.982;15.248;2023-04-24T12:10:32;1.92;;;1.75;;
13866;SDS011;7003;46.982;15.248;2023-04-24T12:13:01;1.95;;;1.45;;
13866;SDS011;7003;46.982;15.248;2023-04-24T12:15:29;1.92;;;1.75;;
13866;SDS011;7003;46.982;15.248;2023-04-24T12:18:01;3.70;;;2.05;;
13866;SDS011;7003;46.982;15.248;2023-04-24T12:20:35;2.15;;;2.05;;
13866;SDS011;7003;46.982;15.248;2023-04-24T12:23:03;3.53;;;2.30;;
13866;SDS011;7003;46.982;15.248;2023-04-24T12:25:31;2.63;;;2.22;;
13866;SDS011;7003;46.982;15.248;2023-04-24T12:28:08;2.40;;;2.05;;
13866;SDS011;7003;46.982;15.248;2023-04-24T12:30:39;2.42;;;1.88;;
13866;SDS011;7003;46.982;15.248;2023-04-24T12:33:12;3.10;;;2.10;;
13866;SDS011;7003;46.982;15.248;2023-04-24T12:35:41;1.90;;;1.73;;
13866;SDS011;7003;46.982;15.248;2023-04-24T12:38:10;4.20;;;3.50;;
13866;SDS011;7003;46.982;15.248;2023-04-24T12:40:42;2.17;;;2.00;;
13866;SDS011;7003;46.982;15.248;2023-04-24T12:43:13;1.70;;;1.60;;
13866;SDS011;7003;46.982;15.248;2023-04-24T12:45:42;2.45;;;2.13;;
13866;SDS011;7003;46.982;15.248;2023-04-24T12:48:10;2.55;;;2.33;;
13866;SDS011;7003;46.982;15.248;2023-04-24T12:50:39;2.80;;;2.00;;
13866;SDS011;7003;46.982;15.248;2023-04-24T12:53:10;2.58;;;2.38;;
13866;SDS011;7003;46.982;15.248;2023-04-24T12:55:40;2.63;;;2.42;;
13866;SDS011;7003;46.982;15.248;2023-04-24T12:58:08;2.28;;;2.05;;
13866;SDS011;7003;46.982;15.248;2023-04-24T13:00:37;2.70;;;2.22;;
13866;SDS011;7003;46.982;15.248;2023-04-24T13:03:12;3.53;;;3.22;;
13866;SDS011;7003;46.982;15.248;2023-04-24T13:05:44;2.17;;;1.90;;
13866;SDS011;7003;46.982;15.248;2023-04-24T13:08:13;1.80;;;1.70;;
13866;SDS011;7003;46.982;15.248;2023-04-24T13:10:44;3.90;;;2.30;;
13866;SDS011;7003;46.982;15.248;2023-04-24T13:13:12;2.80;;;2.58;;
13866;SDS011;7003;46.982;15.248;2023-04-24T13:15:40;2.90;;;2.55;;
13866;SDS011;7003;46.982;15.248;2023-04-24T13:18:08;2.85;;;2.30;;
13866;SDS011;7003;46.982;15.248;2023-04-24T13:20:36;7.40;;;2.88;;
13866;SDS011;7003;46.982;15.248;2023-04-24T13:23:07;2.20;;;2.03;;
13866;SDS011;7003;46.982;15.248;2023-04-24T13:25:36;12.57;;;3.45;;
13866;SDS011;7003;46.982;15.248;2023-04-24T13:28:04;3.08;;;2.30;;
13866;SDS011;7003;46.982;15.248;2023-04-24T13:30:34;2.47;;;2.28;;
13866;SDS011;7003;46.982;15.248;2023-04-24T13:33:02;3.03;;;2.53;;
13866;SDS011;7003;46.982;15.248;2023-04-24T13:35:30;3.20;;;2.90;;
13866;SDS011;7003;46.982;15.248;2023-04-24T13:38:01;3.78;;;3.03;;
13866;SDS011;7003;46.982;15.248;2023-04-24T13:40:33;3.17;;;2.08;;
13866;SDS011;7003;46.982;15.248;2023-04-24T13:43:01;2.45;;;2.25;;
13866;SDS011;7003;46.982;15.248;2023-04-24T13:45:29;2.65;;;2.20;;
13866;SDS011;7003;46.982;15.248;2023-04-24T13:47:58;2.13;;;2.03;;
13866;SDS011;7003;46.982;15.248;2023-04-24T13:50:27;2.63;;;2.42;;
13866;SDS011;7003;46.982;15.248;2023-04-24T13:52:55;3.00;;;2.10;;
13866;SDS011;7003;46.982;15.248;2023-04-24T13:55:25;2.05;;;1.85;;
13866;SDS011;7003;46.982;15.248;2023-04-24T13:57:58;1.75;;;1.65;;
13866;SDS011;7003;46.982;15.248;2023-04-24T14:00:27;3.60;;;1.98;;
13866;SDS011;7003;46.982;15.248;2023-04-24T14:02:55;2.22;;;2.03;;
13866;SDS011;7003;46.982;15.248;2023-04-24T14:05:23;1.65;;;1.52;;
13866;SDS011;7003;46.982;15.248;2023-04-24T14:07:54;2.40;;;1.67;;
13866;SDS011;7003;46.982;15.248;2023-04-24T14:10:25;1.05;;;0.95;;
13866;SDS011;7003;46.982;15.248;2023-04-24T14:13:02;1.42;;;1.33;;
13866;SDS011;7003;46.982;15.248;2023-04-24T14:15:33;2.08;;;1.88;;
13866;SDS011;7003;46.982;15.248;2023-04-24T14:18:02;1.38;;;1.27;;
13866;SDS011;7003;46.982;15.248;2023-04-24T14:20:31;1.17;;;1.08;;
13866;SDS011;7003;46.982;15.248;2023-04-24T14:23:01;2.05;;;1.88;;
13866;SDS011;7003;46.982;15.248;2023-04-24T14:25:32;2.28;;;1.67;;
13866;SDS011;7003;46.982;15.248;2023-04-24T14:28:03;2.28;;;1.50;;
13866;SDS011;7003;46.982;15.248;2023-04-24T14:30:35;3.53;;;1.42;;
13866;SDS011;7003;46.982;15.248;2023-04-24T14:33:06;1.45;;;1.27;;
13866;SDS011;7003;46.982;15.248;2023-04-24T14:35:35;1.50;;;1.38;;
13866;SDS011;7003;46.982;15.248;2023-04-24T14:38:03;1.27;;;1.17;;
13866;SDS011;7003;46.982;15.248;2023-04-24T14:40:31;4.32;;;1.45;;
13866;SDS011;7003;46.982;15.248;2023-04-24T14:42:59;2.15;;;1.55;;
13866;SDS011;7003;46.982;15.248;2023-04-24T14:45:31;0.90;;;0.90;;
13866;SDS011;7003;46.982;15.248;2023-04-24T14:48:00;3.17;;;1.30;;
13866;SDS011;7003;46.982;15.248;2023-04-24T14:50:31;1.30;;;1.20;;
13866;SDS011;7003;46.982;15.248;2023-04-24T14:52:59;4.05;;;1.17;;
13866;SDS011;7003;46.982;15.248;2023-04-24T14:55:31;2.03;;;0.95;;
13866;SDS011;7003;46.982;15.248;2023-04-24T14:58:02;1.80;;;1.70;;
13866;SDS011;7003;46.982;15.248;2023-04-24T15:00:32;1.30;;;0.93;;
13866;SDS011;7003;46.982;15.248;2023-04-24T15:03:00;0.85;;;0.77;;
13866;SDS011;7003;46.982;15.248;2023-04-24T15:05:31;1.15;;;1.05;;